A7ABI EKRK-EKCH
Flight info
| Callsign | A7ABI |
|---|---|
| Flight time | 0h 14m |
| Altitude | 4000 |
| Route | DCT |
| Aircraft | DA42/L-SBDGRY/S |
Departure
| Time | 2026-05-05 07:52 |
|---|---|
| Airport | Copenhagen Roskilde Airport (EKRK) |
Arrival
| Time | 2026-05-05 08:07 |
|---|---|
| Airport | Copenhagen Kastrup Airport (EKCH) |
| Time | Latitude | Longitude | Altitude | Speed | Heading |
|---|---|---|---|---|---|
| 2026-05-05 07:36 | 55.58928 | 12.12894 | 143 ft | 0 kts | 229° |
| 2026-05-05 07:47 | 55.58928 | 12.12893 | 143 ft | 2 kts | 229° |
| 2026-05-05 07:48 | 55.58938 | 12.12889 | 143 ft | 4 kts | 45° |
| 2026-05-05 07:48 | 55.58941 | 12.12954 | 144 ft | 8 kts | 113° |
| 2026-05-05 07:48 | 55.58908 | 12.13066 | 143 ft | 4 kts | 167° |
| 2026-05-05 07:48 | 55.58848 | 12.13015 | 142 ft | 16 kts | 207° |
| 2026-05-05 07:49 | 55.58766 | 12.13045 | 142 ft | 12 kts | 132° |
| 2026-05-05 07:49 | 55.58715 | 12.13219 | 145 ft | 19 kts | 116° |
| 2026-05-05 07:49 | 55.58654 | 12.13467 | 144 ft | 25 kts | 119° |
| 2026-05-05 07:49 | 55.58599 | 12.13636 | 144 ft | 14 kts | 120° |
| 2026-05-05 07:50 | 55.58555 | 12.13792 | 144 ft | 7 kts | 125° |
| 2026-05-05 07:50 | 55.58508 | 12.13777 | 143 ft | 9 kts | 206° |
| 2026-05-05 07:50 | 55.58504 | 12.13773 | 143 ft | 0 kts | 208° |
| 2026-05-05 07:51 | 55.58485 | 12.13756 | 143 ft | 7 kts | 207° |
| 2026-05-05 07:51 | 55.58422 | 12.13701 | 144 ft | 10 kts | 219° |
| 2026-05-05 07:51 | 55.58429 | 12.13597 | 142 ft | 12 kts | 296° |
| 2026-05-05 07:51 | 55.58487 | 12.13385 | 143 ft | 43 kts | 294° |
| 2026-05-05 07:52 | 55.58678 | 12.12675 | 274 ft | 77 kts | 296° |
| 2026-05-05 07:52 | 55.58918 | 12.11738 | 473 ft | 90 kts | 297° |
| 2026-05-05 07:52 | 55.59246 | 12.10717 | 591 ft | 104 kts | 314° |
| 2026-05-05 07:52 | 55.59916 | 12.10494 | 805 ft | 109 kts | 24° |
| 2026-05-05 07:53 | 55.60240 | 12.11680 | 1024 ft | 116 kts | 85° |
| 2026-05-05 07:53 | 55.60222 | 12.13078 | 1259 ft | 111 kts | 85° |
| 2026-05-05 07:53 | 55.60235 | 12.14439 | 1485 ft | 113 kts | 83° |
| 2026-05-05 07:53 | 55.60254 | 12.15913 | 1499 ft | 121 kts | 85° |
| 2026-05-05 07:54 | 55.60265 | 12.17339 | 1502 ft | 113 kts | 86° |
| 2026-05-05 07:54 | 55.60275 | 12.18714 | 1491 ft | 110 kts | 84° |
| 2026-05-05 07:54 | 55.60262 | 12.20049 | 1498 ft | 107 kts | 86° |
| 2026-05-05 07:54 | 55.60274 | 12.21377 | 1495 ft | 109 kts | 83° |
| 2026-05-05 07:55 | 55.60276 | 12.22707 | 1495 ft | 106 kts | 85° |
| 2026-05-05 07:55 | 55.60288 | 12.23993 | 1497 ft | 105 kts | 84° |
| 2026-05-05 07:55 | 55.60292 | 12.25303 | 1500 ft | 109 kts | 86° |
| 2026-05-05 07:55 | 55.60299 | 12.26637 | 1495 ft | 108 kts | 85° |
| 2026-05-05 07:56 | 55.60307 | 12.27962 | 1503 ft | 109 kts | 83° |
| 2026-05-05 07:56 | 55.60309 | 12.29315 | 1507 ft | 111 kts | 83° |
| 2026-05-05 07:56 | 55.60313 | 12.30686 | 1505 ft | 110 kts | 85° |
| 2026-05-05 07:56 | 55.60317 | 12.31984 | 1505 ft | 108 kts | 85° |
| 2026-05-05 07:57 | 55.60322 | 12.33345 | 1508 ft | 110 kts | 86° |
| 2026-05-05 07:57 | 55.60324 | 12.34710 | 1504 ft | 111 kts | 84° |
| 2026-05-05 07:57 | 55.60320 | 12.36067 | 1509 ft | 111 kts | 85° |
| 2026-05-05 07:57 | 55.60320 | 12.37426 | 1507 ft | 111 kts | 85° |
| 2026-05-05 07:58 | 55.60323 | 12.38795 | 1509 ft | 112 kts | 85° |
| 2026-05-05 07:58 | 55.60329 | 12.40168 | 1509 ft | 111 kts | 85° |
| 2026-05-05 07:58 | 55.60341 | 12.41529 | 1508 ft | 111 kts | 84° |
| 2026-05-05 07:58 | 55.60339 | 12.42895 | 1506 ft | 111 kts | 85° |
| 2026-05-05 07:59 | 55.60342 | 12.44257 | 1508 ft | 111 kts | 85° |
| 2026-05-05 07:59 | 55.60337 | 12.45634 | 1506 ft | 111 kts | 86° |
| 2026-05-05 07:59 | 55.60397 | 12.46988 | 1508 ft | 110 kts | 78° |
| 2026-05-05 07:59 | 55.60495 | 12.48325 | 1507 ft | 110 kts | 76° |
| 2026-05-05 08:00 | 55.60635 | 12.49645 | 1499 ft | 108 kts | 75° |
| 2026-05-05 08:00 | 55.60767 | 12.50931 | 1499 ft | 106 kts | 75° |
| 2026-05-05 08:00 | 55.60909 | 12.52232 | 1499 ft | 109 kts | 74° |
| 2026-05-05 08:00 | 55.61040 | 12.53540 | 1497 ft | 106 kts | 75° |
| 2026-05-05 08:01 | 55.61173 | 12.54812 | 1499 ft | 105 kts | 75° |
| 2026-05-05 08:01 | 55.61302 | 12.56090 | 1498 ft | 106 kts | 75° |
| 2026-05-05 08:01 | 55.61440 | 12.57345 | 1492 ft | 102 kts | 75° |
| 2026-05-05 08:01 | 55.61562 | 12.58537 | 1491 ft | 98 kts | 75° |
| 2026-05-05 08:02 | 55.61651 | 12.59714 | 1488 ft | 96 kts | 91° |
| 2026-05-05 08:02 | 55.61305 | 12.60691 | 1489 ft | 95 kts | 127° |
| 2026-05-05 08:02 | 55.60901 | 12.61591 | 1490 ft | 93 kts | 125° |
| 2026-05-05 08:02 | 55.60505 | 12.62480 | 1492 ft | 91 kts | 125° |
| 2026-05-05 08:03 | 55.60114 | 12.63356 | 1490 ft | 90 kts | 124° |
| 2026-05-05 08:03 | 55.59728 | 12.64222 | 1492 ft | 89 kts | 125° |
| 2026-05-05 08:03 | 55.59342 | 12.65079 | 1500 ft | 89 kts | 124° |
| 2026-05-05 08:03 | 55.58946 | 12.65935 | 1509 ft | 92 kts | 125° |
| 2026-05-05 08:04 | 55.58543 | 12.66824 | 1511 ft | 93 kts | 124° |
| 2026-05-05 08:04 | 55.58140 | 12.67725 | 1507 ft | 93 kts | 125° |
| 2026-05-05 08:04 | 55.57733 | 12.68634 | 1494 ft | 94 kts | 123° |
| 2026-05-05 08:04 | 55.57484 | 12.69618 | 1500 ft | 87 kts | 79° |
| 2026-05-05 08:05 | 55.57927 | 12.70171 | 1353 ft | 87 kts | 348° |
| 2026-05-05 08:05 | 55.58466 | 12.69983 | 1388 ft | 77 kts | 353° |
| 2026-05-05 08:05 | 55.59006 | 12.69857 | 1210 ft | 79 kts | 348° |
| 2026-05-05 08:05 | 55.59514 | 12.69486 | 1022 ft | 80 kts | 332° |
| 2026-05-05 08:06 | 55.60008 | 12.69056 | 812 ft | 78 kts | 336° |
| 2026-05-05 08:06 | 55.60501 | 12.68640 | 561 ft | 78 kts | 323° |
| 2026-05-05 08:06 | 55.60887 | 12.67996 | 351 ft | 75 kts | 309° |
| 2026-05-05 08:06 | 55.61187 | 12.67239 | 139 ft | 74 kts | 304° |
| 2026-05-05 08:07 | 55.61452 | 12.66529 | 32 ft | 65 kts | 304° |
| 2026-05-05 08:07 | 55.61677 | 12.65926 | 18 ft | 47 kts | 303° |
| 2026-05-05 08:07 | 55.61774 | 12.65634 | 15 ft | 12 kts | 253° |
| 2026-05-05 08:07 | 55.61736 | 12.65726 | 17 ft | 17 kts | 120° |
| 2026-05-05 08:08 | 55.61656 | 12.65955 | 17 ft | 23 kts | 123° |
| 2026-05-05 08:08 | 55.61577 | 12.66154 | 16 ft | 13 kts | 155° |
| 2026-05-05 08:08 | 55.61479 | 12.66078 | 11 ft | 20 kts | 204° |
| 2026-05-05 08:08 | 55.61375 | 12.66054 | 11 ft | 9 kts | 229° |
| 2026-05-05 08:09 | 55.61367 | 12.65911 | 11 ft | 15 kts | 261° |
| 2026-05-05 08:09 | 55.61313 | 12.65779 | 13 ft | 17 kts | 175° |
| 2026-05-05 08:09 | 55.61259 | 12.65715 | 14 ft | 8 kts | 301° |
| 2026-05-05 08:09 | 55.61269 | 12.65706 | 14 ft | 0 kts | 335° |